Milford, NJ (08848)

1:32 PM EST on January 20, 2017 (GMT -0500)
River Side | | Change Station

Elev 138 ft 40.57 °N, 75.10 °W | Updated 22 seconds ago

Rain
Rain
39.4 °F
Feels Like 39 °F
N
0.0
Wind Variable Wind from SE

Today
High -- | Low -- °F
--% Chance of Precip.
Yesterday
High -- | Low -- °F
Precip. -- in
Pressure 29.95 in
Visibility 10.0 miles
Clouds Few 3400 ft
Mostly Cloudy 6500 ft
Overcast 8000 ft
Windchill 39 °F
Dew Point 38 °F
Humidity 93%
Rainfall 0.04 in
Snow Depth Not available.
7:19 AM 5:04 PM
Last Quarter, 42% visible
METAR KDYL 201754Z AUTO 00000KT 10SM -RA FEW034 BKN065 OVC080 04/03 A2993 RMK AO2 RAB06 SLP141 P0004 60004 I6000 T00440028 10050 21017 58024
Pressure 29.95 in
Visibility 10.0 miles
Clouds Few 3400 ft
Mostly Cloudy 6500 ft
Overcast 8000 ft
Windchill 39 °F
Dew Point 38 °F
Humidity 93%
Rainfall 0.04 in
Snow Depth Not available.
7:19 AM 5:04 PM
Last Quarter, 42% visible
METAR KDYL 201754Z AUTO 00000KT 10SM -RA FEW034 BKN065 OVC080 04/03 A2993 RMK AO2 RAB06 SLP141 P0004 60004 I6000 T00440028 10050 21017 58024

Get Your Daily Forecast Email!

Thanks for signing up!

Be on the lookout for a verification email in your inbox.

You'll start receiving the daily forecast at 8 AM.

×

10-Day Weather Forecast

Almanac

Astronomy

Jan. 20, 2017 Rise Set
Actual Time
Civil Twilight
Nautical Twilight
Astronomical Twilight
Moon
Length of Visible Light
Length of Day
Tomorrow will be .
, % of the Moon is Illuminated

Today's Extremes

State Highs State Lows

Community

WunderPhotos

Upload Photos

1,962,540 photos uploaded!

WunderBlog® & News

Nearby

Air Quality

  Air Quality AQ Index Pollutant
Not available.

Snow Depth

Station Depth Elevation

Earthquake Activity

City Distance Mag. Time & Date
Minimum magnitude displayed is 2.5.

Coastal Water Temperatures

Place Temperature

Stations

Nearby Weather Stations

Station Location Temp. Windchill Dew Point Humidity Wind Precip. Elev Updated Type
                   

Watches & Warnings

There are currently no watches in effect.